x

Venice, Fl (venf1) Weather Station

6:00am - Fri 22nd May 2015 All times are EDT. -4 hours from GMT.

  • Wind
    10mph, 11mph gusts
  • Sea Temp 84°f
  • Air Temp 81°f
  • Sea Pressure 1016.6mb
  • Venice, Fl
  • Venice, Fl

More Historic Weather Station data

Upgrade to MSW Pro to gain access to the past 30 days of data for over 8000 Wavebouys and Weather Stations around the globe.

Join Pro

Comparision Forecast

View Surf forecast
   
Fri 05/22 6:00am 10 11 mph 1016.6mb 84f 81f
5:00am 13 15 mph 1016.4mb 84f 80f
4:00am 14 15 mph 1016.3mb 84f 81f
3:00am 14 15 mph 1016.4mb 84f 81f
2:00am 11 14 mph 1016.5mb 85f 81f
1:00am 13 15 mph 1016.6mb 85f 82f
12:00am 13 14 mph 1016.5mb 85f 82f
Thu 05/21 11:00pm 15 16 mph 1016.4mb 85f 82f
10:00pm 13 14 mph 1015.8mb 85f 81f
9:00pm 14 16 mph 1015.1mb 85f 81f
8:00pm 15 16 mph 1014.7mb 85f 81f
7:00pm 14 16 mph 1014.1mb 85f 82f
6:00pm 16 18 mph 1013.9mb 85f 82f
5:00pm 17 20 mph 1014.8mb 85f 82f
4:00pm 14 15 mph 1015.2mb 85f 82f
3:00pm 11 13 mph 1015.5mb 85f 82f
2:00pm 13 15 mph 1016mb 85f 82f
1:00pm 14 15 mph 1016.4mb 85f 82f
12:00pm 13 14 mph 1016.7mb 84f 81f
11:00am 10 13 mph 1016.7mb 84f 81f
10:00am 13 14 mph 1016.8mb 84f 82f
9:00am 9 10 mph 1016.6mb 84f 82f
8:00am  -  2 mph 1016.1mb 83f 81f
7:00am 2
mph
1015.3mb 83f 77f
6:00am 3
mph
1014.6mb 84f 76f
5:00am 5
mph
1014.3mb 84f 76f
4:00am 5 6 mph 1014.8mb 84f 77f
3:00am 14 15 mph 1014.8mb 84f 80f
2:00am 15 18 mph 1015.4mb 84f 80f
1:00am 14 15 mph 1015.9mb 84f 81f
12:00am 13 15 mph 1016mb 85f 81f
Wed 05/20 11:00pm 15 17 mph 1016mb 85f 81f
10:00pm 17 20 mph 1015.5mb 85f 81f
9:00pm 17 20 mph 1015.1mb 85f 81f
8:00pm 15 16 mph 1014.4mb 85f 81f
7:00pm 16 17 mph 1013.6mb 85f 82f
6:00pm 16 17 mph 1014.1mb 85f 82f
5:00pm 14 16 mph 1014.5mb 85f 82f
4:00pm 14 15 mph 1014.9mb 85f 82f
3:00pm 14 16 mph 1015.3mb 85f 82f
2:00pm 14 15 mph 1015.4mb 85f 82f
1:00pm 11 13 mph 1016.2mb 85f 82f
12:00pm 9 10 mph 1016.3mb 84f 82f
11:00am 7 8 mph 1016.3mb 84f 82f
10:00am 8
mph
1016.1mb 83f 81f
9:00am 6 7 mph 1015.9mb 83f 81f
8:00am 2 3 mph 1015.8mb 83f 79f
7:00am 5
mph
1015.7mb 83f 75f
6:00am 5
mph
1015mb 83f 76f
5:00am 2 3 mph 1015mb 83f 76f
4:00am 5
mph
1015.4mb 83f 78f
3:00am 5 6 mph 1015.9mb 84f 78f
2:00am 3 5 mph 1016.3mb 84f 79f
1:00am 6 8 mph 1016.8mb 84f 80f
12:00am 15 16 mph 1016.9mb 84f 81f
Tue 05/19 11:00pm 15 17 mph 1016.6mb 84f 81f
10:00pm 15 17 mph 1016.1mb 84f 81f
9:00pm 15 16 mph 1015.7mb 85f 81f
8:00pm 11 13 mph 1015.4mb 85f 81f
7:00pm 1 2 mph 1015.4mb 85f 78f
6:00pm 11 13 mph 1016.1mb 85f 82f
5:00pm 15
mph
1015.9mb 85f 83f
4:00pm 17 18 mph 1016.3mb 85f 82f
3:00pm 15 16 mph 1017.1mb 85f 82f
2:00pm 11 14 mph 1017.8mb 84f 82f
1:00pm 9 10 mph 1018.6mb 84f 81f
12:00pm 7 8 mph 1019mb 84f 81f
11:00am 5 6 mph 1019mb 83f 81f
10:00am 2 3 mph 1018.9mb 83f 80f
9:00am 2 3 mph 1019.1mb 83f 78f
8:00am 6 7 mph 1018.5mb 83f 75f
7:00am 6 7 mph 1018.2mb 83f 72f
6:00am 6
mph
1017.6mb 83f 73f
5:00am 6 7 mph 1017.5mb 83f 73f
4:00am 6 7 mph 1017.6mb 83f 74f
3:00am 5 6 mph 1018.3mb 83f 75f
2:00am 6
mph
1019mb 84f 76f
1:00am 7 9 mph 1019.7mb 84f 78f
12:00am 5 6 mph 1020.2mb 84f 79f
Mon 05/18 11:00pm 7 8 mph 1020.5mb 84f 80f
10:00pm 15 17 mph 1019.5mb 84f 81f
9:00pm 18 20 mph 1019.2mb 85f 81f
8:00pm 17 20 mph 1019.1mb 85f 81f
7:00pm 13 14 mph 1018.5mb 85f 82f
6:00pm 13 15 mph 1018.7mb 85f 82f
5:00pm 10
mph
1019.2mb 85f 83f
4:00pm 11 13 mph 1019.5mb 85f 83f
3:00pm 11 13 mph 1020.3mb 84f 82f
2:00pm 9 11 mph 1020.5mb 84f 85f
1:00pm 8 11 mph 1021.2mb 84f 84f
12:00pm 8 9 mph 1021.7mb 84f 83f